x

South Bermuda - 300 Nm Sse Of Bermuda (41049) Wave Buoy

4:50am - Wed 10th Feb 2016 All times are UTC.

  • Sig Wave height 9.2ft
  • Peak Period 11s
  • Wind
    20mph, 25mph gusts
  • Sea Temp 76°f
  • Air Temp 76°f
  • Sea Pressure 1019.5mb

More Historic Weather Station data

Upgrade to MSW Pro to gain access to the past 30 days of data for over 8000 Wavebouys and Weather Stations around the globe.

Join Pro

Comparision Forecast

View Surf forecast
   
Wed 02/10 4:50am 9ft 11s  -  20 25 mph 1019.5mb 76f 76f
3:50am 9.5ft 12s 7s 20 25 mph 1019.3mb 76f 76f
2:50am 9ft 12s 7s 20 25 mph 1019.8mb 76f 76f
1:50am 9ft 13s 7s 20 25 mph 1019.6mb 76f 76f
12:50am 10.5ft 12s 8s 18 20 mph 1019.9mb 76f 76f
Tue 02/09 11:50pm 11ft 12s 8s 18 22 mph 1019.6mb 76f 76f
10:50pm 11ft 11s 8s 20 25 mph 1019mb 76f 76f
9:50pm 12ft 13s 8s 18 22 mph 1018.7mb 76f 76f
8:50pm 12ft 13s 8s 20 25 mph 1018.1mb 76f 77f
7:50pm 11.5ft 12s 8s 20 25 mph 1017.7mb 76f 76f
6:50pm 11ft 14s 8s 20 25 mph 1017.5mb 76f 76f
5:50pm 11ft 12s 8s 20 22 mph 1017.7mb 76f 76f
4:50pm 13ft 14s 9s 20 25 mph 1018.1mb 75f 76f
3:50pm 13ft 14s 8s 20 27 mph 1018.8mb 75f 76f
2:50pm 14ft 13s 9s 20 25 mph 1018.9mb 75f 76f
1:50pm 15ft 14s 9s 18 20 mph 1018.6mb 75f 76f
12:50pm 14.5ft 14s 9s 18 20 mph 1018mb 75f 76f
11:50am 15ft 15s 9s 18 22 mph 1017.5mb 75f 75f
10:50am 15ft 15s 9s 18 22 mph 1017.1mb 75f 75f
9:50am 15.5ft 14s 10s 18 22 mph 1016.6mb 75f 74f
8:50am 15.5ft 15s 10s 20 22 mph 1015.8mb 75f 74f
7:50am 16ft 16s 10s 16 18 mph 1016.4mb 75f 74f
6:50am 16.5ft 16s 10s 16 18 mph 1016.2mb 75f 74f
5:50am 15ft 17s 10s 7 9 mph 1016.8mb 75f 74f
4:50am 14.5ft 14s 10s 7 11 mph 1017.5mb 75f 74f
3:50am 15ft 12s 10s 11 13 mph 1017.5mb 75f 74f
2:50am 12.5ft 14s 9s 13 16 mph 1017.3mb 75f 74f
1:50am 11.5ft 11s 9s 7 9 mph 1017.4mb 75f 74f
12:50am 11ft 14s 8s 4 7 mph 1017.3mb 75f 74f
Mon 02/08 11:50pm 9ft 9s 8s 4 7 mph 1016.9mb 75f 74f
10:50pm 8.5ft 8s 7s 11 16 mph 1016.2mb 75f 74f
9:50pm 7.5ft 7s 6s 18 20 mph 1015.6mb 75f 74f
8:50pm 8ft 8s 6s 13 18 mph 1015.2mb 75f 75f
7:50pm 8ft 7s 6s 13 18 mph 1014.8mb 75f 74f
6:50pm 9ft 7s 6s 16 20 mph 1014.6mb 75f 73f
5:50pm 9ft 8s 6s 18 22 mph 1015.2mb 74f 72f
4:50pm 10ft 7s 6s 20 25 mph 1016.3mb 74f 71f
3:50pm 9ft 7s 6s 25 29 mph 1015.9mb 74f 76f
2:50pm 9ft 7s 6s 25 29 mph 1015.7mb 73f 76f
1:50pm 9.5ft 7s 6s 25 29 mph 1015.4mb 73f 76f
12:50pm 8.5ft 7s 6s 25 31 mph 1014.9mb 73f 76f
11:50am 9ft 7s 6s 25 29 mph 1014.4mb 73f 75f
9:50am 9ft 7s 6s 27 31 mph 1013.2mb 73f 75f
8:50am 9.5ft 6s 6s 25 31 mph 1013.3mb 73f 75f
7:50am 8ft 7s 6s 27 34 mph 1013mb 73f 75f
6:50am 8ft 6s 6s 27 31 mph 1013.8mb 73f 75f
5:50am 7.5ft 6s 6s 25 31 mph 1014.6mb 73f 75f
4:50am 7.5ft 8s 6s 22 27 mph 1015.9mb 73f 75f
3:50am 7ft 8s 6s 22 27 mph 1016.6mb 73f 75f
2:50am 7.5ft 8s 7s 22 29 mph 1017mb 73f 75f
1:50am 8ft 8s 7s 20 25 mph 1017.5mb 73f 75f
12:50am 7.5ft 11s 7s 20 22 mph 1017.5mb 73f 75f
Sun 02/07 11:50pm 8ft 11s 7s 18 22 mph 1017.4mb 73f 75f
10:50pm 7.5ft 9s 7s 20 25 mph 1016.8mb 74f 75f
9:50pm 8ft 9s 7s 22 27 mph 1016.4mb 74f 75f
8:50pm 8ft 9s 7s 20 25 mph 1016.2mb 74f 75f
7:50pm 8.5ft 9s 7s 20 25 mph 1016mb 74f 75f
6:50pm 8ft 8s 7s 20 22 mph 1016.3mb 74f 75f
5:50pm 9ft 10s 7s 16 20 mph 1017.1mb 74f 75f
4:50pm 9ft 9s 7s 20 22 mph 1017.6mb 74f 75f
3:50pm 9ft 9s 7s 18 22 mph 1018.6mb 74f 75f
2:50pm 8.5ft 11s 7s 18 20 mph 1019.1mb 74f 75f
1:50pm 9ft 9s 8s 16 18 mph 1019.2mb 74f 75f
12:50pm 8.5ft 12s 7s 16 20 mph 1018.7mb 73f 74f
11:50am 8ft 9s 7s 16 20 mph 1018.5mb 73f 74f
10:50am 8ft 9s 7s 18 22 mph 1017.9mb 73f 74f
9:50am 7.5ft 9s 7s 16 20 mph 1017.8mb 73f 74f
8:50am 8ft 9s 7s 16 20 mph 1017.6mb 73f 74f
7:50am 8ft 9s 7s 16 20 mph 1017.7mb 73f 74f
6:50am 7ft 10s 7s 13 16 mph 1018.9mb 73f 74f
5:50am 8ft 9s 7s 16 18 mph 1019.5mb 73f 74f
4:50am 8ft 10s 7s 16 18 mph 1019.9mb 73f 74f
3:50am 7.5ft 9s 7s 13 18 mph 1020.2mb 73f 74f
2:50am 8.5ft 9s 8s 13 16 mph 1020.6mb 73f 74f
1:50am 7ft 9s 7s 9 11 mph 1021.4mb 73f 73f
12:50am 7ft 10s 7s 9 11 mph 1021.3mb 73f 74f
Sat 02/06 11:50pm 7ft 8s 7s 11 13 mph 1020.9mb 73f 74f
10:50pm 7ft 10s 7s 7 9 mph 1020.9mb 73f 74f
9:50pm 7ft 10s 7s 7 9 mph 1020.5mb 74f 74f
8:50pm 7ft 10s 7s 9 11 mph 1020mb 74f 75f
7:50pm 7ft 10s 7s 11 13 mph 1019.9mb 74f 75f
6:50pm 7.5ft 10s 7s 13 16 mph 1019.5mb 74f 75f
5:50pm 8ft 10s 7s 11 13 mph 1020.1mb 74f 75f
4:50pm 8ft 10s 8s 11 13 mph 1020.7mb 74f 75f
3:50pm 8ft 10s 8s 9 11 mph 1021.4mb 74f 75f
2:50pm 7ft 10s 7s 11
mph
1021.8mb 74f 75f
1:50pm 8ft 10s 8s 11 13 mph 1021.7mb 74f 75f
12:50pm 7.5ft 10s 7s 11 13 mph 1021mb 74f 74f
11:50am 8ft 10s 8s 11 13 mph 1020.4mb 74f 74f
10:50am 8.5ft 10s 8s 13 16 mph 1019.4mb 74f 74f
9:50am 8ft 10s 8s 11 13 mph 1018.9mb 74f 74f
8:50am 9ft 10s 8s 11 16 mph 1018.2mb 74f 74f
7:50am 9ft 11s 8s 11 16 mph 1018mb 74f 74f
6:50am 8ft 10s 7s 13 16 mph 1018.3mb 74f 74f
5:50am 9.5ft 10s 8s 13 16 mph 1019mb 74f 74f